createdAt,value
2016-05-21T00:00:40.889Z,13.32
2016-05-21T00:01:40.875Z,13.3
2016-05-21T00:02:40.862Z,13.25
2016-05-21T00:03:40.865Z,13.33
2016-05-21T00:04:40.836Z,13.33
2016-05-21T00:05:40.824Z,13.24
2016-05-21T00:06:40.810Z,13.21
2016-05-21T00:07:40.798Z,13.25
2016-05-21T00:08:40.800Z,13.27
2016-05-21T00:09:40.772Z,13.21
2016-05-21T00:10:40.758Z,13.29
2016-05-21T00:11:41.508Z,13.36
2016-05-21T00:12:40.761Z,13.22
2016-05-21T00:13:40.764Z,13.25
2016-05-21T00:14:40.766Z,13.27
2016-05-21T00:15:40.769Z,13.29
2016-05-21T00:16:40.780Z,13.21
2016-05-21T00:17:40.741Z,13.36
2016-05-21T00:18:40.750Z,13.33
2016-05-21T00:19:40.743Z,13.38
2016-05-21T00:20:40.735Z,13.25
2016-05-21T00:21:40.710Z,13.37
2016-05-21T00:22:40.700Z,13.38
2016-05-21T00:23:40.548Z,13.38
2016-05-21T00:24:40.679Z,13.41
2016-05-21T00:25:40.683Z,13.43
2016-05-21T00:26:40.359Z,13.32
2016-05-21T00:27:40.644Z,13.38
2016-05-21T00:28:40.647Z,13.3
2016-05-21T00:29:40.463Z,13.3
2016-05-21T00:30:40.606Z,13.3
2016-05-21T00:31:40.595Z,13.32
2016-05-21T00:32:40.582Z,13.27
2016-05-21T00:33:40.568Z,13.29
2016-05-21T00:34:40.556Z,13.29
2016-05-21T00:35:40.559Z,13.25
2016-05-21T00:36:40.530Z,13.22
2016-05-21T00:37:40.376Z,13.18
2016-05-21T00:38:40.504Z,13.14
2016-05-21T00:39:40.350Z,13.11
2016-05-21T00:40:40.494Z,13.09
2016-05-21T00:41:40.684Z,13.12
2016-05-21T00:42:40.467Z,13.07
2016-05-21T00:43:40.439Z,13.06
2016-05-21T00:44:40.441Z,13.09
2016-05-21T00:45:40.414Z,12.97
2016-05-21T00:46:40.401Z,12.97
2016-05-21T00:47:40.388Z,13
2016-05-21T00:48:40.375Z,12.96
2016-05-21T00:49:40.205Z,12.95
2016-05-21T00:50:40.333Z,12.93
2016-05-21T00:51:40.024Z,12.84
2016-05-21T00:52:40.307Z,12.85
2016-05-21T00:53:40.294Z,12.84
2016-05-21T00:54:40.281Z,12.85
2016-05-21T00:55:40.471Z,12.78
2016-05-21T00:56:40.427Z,12.79
2016-05-21T00:57:40.242Z,12.77
2016-05-21T00:58:40.245Z,12.75
2016-05-21T00:59:40.217Z,12.7
2016-05-21T01:00:40.204Z,12.67
2016-05-21T01:01:40.191Z,12.63
2016-05-21T01:02:40.021Z,12.69
2016-05-21T01:03:40.165Z,12.64
2016-05-21T01:04:40.152Z,12.69
2016-05-21T01:05:40.123Z,12.66
2016-05-21T01:06:39.954Z,12.62
2016-05-21T01:07:40.098Z,12.64
2016-05-21T01:08:40.100Z,12.6
2016-05-21T01:09:40.072Z,12.64
2016-05-21T01:10:40.058Z,12.7
2016-05-21T01:11:40.139Z,12.69
2016-05-21T01:12:40.033Z,12.63
2016-05-21T01:13:40.019Z,12.66
2016-05-21T01:14:40.008Z,12.66
2016-05-21T01:15:40.025Z,12.74
2016-05-21T01:16:39.981Z,12.81
2016-05-21T01:17:39.969Z,12.78
2016-05-21T01:18:39.955Z,12.79
2016-05-21T01:19:39.927Z,12.74
2016-05-21T01:20:39.914Z,12.84
2016-05-21T01:21:39.901Z,12.79
2016-05-21T01:22:39.732Z,12.88
2016-05-21T01:23:39.875Z,12.87
2016-05-21T01:24:39.877Z,12.84
2016-05-21T01:25:39.849Z,12.84
2016-05-21T01:26:40.273Z,12.84
2016-05-21T01:27:39.823Z,12.81
2016-05-21T01:28:39.810Z,12.81
2016-05-21T01:29:39.626Z,12.74
2016-05-21T01:30:39.785Z,12.84
2016-05-21T01:31:39.771Z,12.88
2016-05-21T01:32:39.759Z,12.85
2016-05-21T01:33:39.746Z,12.82
2016-05-21T01:34:39.561Z,12.84
2016-05-21T01:35:39.720Z,12.85
2016-05-21T01:36:39.551Z,12.84
2016-05-21T01:37:39.678Z,12.84
2016-05-21T01:38:39.681Z,12.99
2016-05-21T01:39:39.653Z,12.99
2016-05-21T01:40:39.639Z,12.92
2016-05-21T01:41:39.626Z,12.97
2016-05-21T01:42:39.458Z,12.99
2016-05-21T01:43:39.601Z,12.99
2016-05-21T01:44:39.589Z,12.96
2016-05-21T01:45:39.559Z,13
2016-05-21T01:46:39.547Z,13
2016-05-21T01:47:39.549Z,13
2016-05-21T01:48:39.520Z,12.96
2016-05-21T01:49:39.508Z,12.99
2016-05-21T01:50:39.494Z,13.03
2016-05-21T01:51:39.325Z,13.04
2016-05-21T01:52:39.312Z,12.97
2016-05-21T01:53:39.455Z,13.02
2016-05-21T01:54:39.443Z,13.04
2016-05-21T01:55:39.430Z,12.96
2016-05-21T01:56:39.464Z,13.04
2016-05-21T01:57:39.404Z,13.02
2016-05-21T01:58:39.391Z,13.03
2016-05-21T01:59:39.379Z,13.06
2016-05-21T02:00:39.349Z,13.02
2016-05-21T02:01:39.337Z,13
2016-05-21T02:02:39.323Z,13
2016-05-21T02:03:39.310Z,12.97
2016-05-21T02:04:39.298Z,13.04
2016-05-21T02:05:39.128Z,13.03
2016-05-21T02:06:39.272Z,12.95
2016-05-21T02:07:39.259Z,13
2016-05-21T02:08:39.245Z,12.99
2016-05-21T02:09:39.217Z,13.02
2016-05-21T02:10:39.220Z,13.02
2016-05-21T02:11:39.051Z,13.02
2016-05-21T02:12:39.179Z,12.96
2016-05-21T02:13:39.025Z,13.03
2016-05-21T02:14:38.856Z,12.97
2016-05-21T02:15:39.140Z,13
2016-05-21T02:16:39.127Z,13
2016-05-21T02:17:39.145Z,12.97
2016-05-21T02:18:39.100Z,13
2016-05-21T02:19:39.088Z,13
2016-05-21T02:20:39.075Z,12.97
2016-05-21T02:21:38.906Z,13
2016-05-21T02:22:39.049Z,12.99
2016-05-21T02:23:39.068Z,12.99
2016-05-21T02:24:39.024Z,12.99
2016-05-21T02:25:38.839Z,12.99
2016-05-21T02:26:38.841Z,12.95
2016-05-21T02:27:38.968Z,12.84
2016-05-21T02:28:38.957Z,12.92
2016-05-21T02:29:38.834Z,12.85
2016-05-21T02:30:38.946Z,12.87
2016-05-21T02:31:38.918Z,12.85
2016-05-21T02:32:38.904Z,12.84
2016-05-21T02:33:38.907Z,12.85
2016-05-21T02:34:38.878Z,12.77
2016-05-21T02:35:38.866Z,12.74
2016-05-21T02:36:38.852Z,12.75
2016-05-21T02:37:38.684Z,12.79
2016-05-21T02:38:38.812Z,12.75
2016-05-21T02:39:38.814Z,12.7
2016-05-21T02:40:38.801Z,12.74
2016-05-21T02:41:38.475Z,12.69
2016-05-21T02:42:38.759Z,12.67
2016-05-21T02:43:38.762Z,12.63
2016-05-21T02:44:38.577Z,12.57
2016-05-21T02:45:38.720Z,12.63
2016-05-21T02:46:38.707Z,12.69
2016-05-21T02:47:38.694Z,12.63
2016-05-21T02:48:38.681Z,12.6
2016-05-21T02:49:38.669Z,12.51
2016-05-21T02:50:38.484Z,12.51
2016-05-21T02:51:38.689Z,12.54
2016-05-21T02:52:38.661Z,12.52
2016-05-21T02:53:38.445Z,12.54
2016-05-21T02:54:38.588Z,12.56
2016-05-21T02:55:38.841Z,12.51
2016-05-21T02:56:38.563Z,12.46
2016-05-21T02:57:38.549Z,12.49
2016-05-21T02:58:38.537Z,12.57
2016-05-21T02:59:38.508Z,12.51
2016-05-21T03:00:38.511Z,12.59
2016-05-21T03:01:38.498Z,12.59
2016-05-21T03:02:38.468Z,12.54
2016-05-21T03:03:38.457Z,12.49
2016-05-21T03:04:38.131Z,12.56
2016-05-21T03:05:38.431Z,12.6
2016-05-21T03:06:38.417Z,12.51
2016-05-21T03:07:38.404Z,12.52
2016-05-21T03:08:38.407Z,12.51
2016-05-21T03:09:38.223Z,12.52
2016-05-21T03:10:38.365Z,12.66
2016-05-21T03:11:38.228Z,12.62
2016-05-21T03:12:38.340Z,12.52
2016-05-21T03:13:38.342Z,12.67
2016-05-21T03:14:38.314Z,12.54
2016-05-21T03:15:38.286Z,12.69
2016-05-21T03:16:38.272Z,12.63
2016-05-21T03:17:38.259Z,12.63
2016-05-21T03:18:38.262Z,12.63
2016-05-21T03:19:38.233Z,12.69
2016-05-21T03:20:38.237Z,12.67
2016-05-21T03:21:38.208Z,12.63
2016-05-21T03:22:38.195Z,12.66
2016-05-21T03:23:38.183Z,12.74
2016-05-21T03:24:38.153Z,12.66
2016-05-21T03:25:38.156Z,12.66
2016-05-21T03:26:38.268Z,12.71
2016-05-21T03:27:37.975Z,12.69
2016-05-21T03:28:38.227Z,12.74
2016-05-21T03:29:38.088Z,12.66
2016-05-21T03:30:38.091Z,12.69
2016-05-21T03:31:38.079Z,12.69
2016-05-21T03:32:38.049Z,12.63
2016-05-21T03:33:38.037Z,12.69
2016-05-21T03:34:38.024Z,12.7
2016-05-21T03:35:37.855Z,12.7
2016-05-21T03:36:37.998Z,12.69
2016-05-21T03:37:37.985Z,12.69
2016-05-21T03:38:37.816Z,12.77
2016-05-21T03:39:37.943Z,12.77
2016-05-21T03:40:37.946Z,12.77
2016-05-21T03:41:37.934Z,12.77
2016-05-21T03:42:37.905Z,12.75
2016-05-21T03:43:37.892Z,12.77
2016-05-21T03:44:37.879Z,12.81
2016-05-21T03:45:37.725Z,12.81
2016-05-21T03:46:37.697Z,12.82
2016-05-21T03:47:37.840Z,12.82
2016-05-21T03:48:37.672Z,12.88
2016-05-21T03:49:37.830Z,12.88
2016-05-21T03:50:37.802Z,12.81
2016-05-21T03:51:37.789Z,12.82
2016-05-21T03:52:37.619Z,12.87
2016-05-21T03:53:37.747Z,12.82
2016-05-21T03:54:37.750Z,12.87
2016-05-21T03:55:37.721Z,12.84
2016-05-21T03:56:37.568Z,12.87
2016-05-21T03:57:37.711Z,12.95
2016-05-21T03:58:37.683Z,12.92
2016-05-21T03:59:37.513Z,12.93
2016-05-21T04:00:37.657Z,12.97
2016-05-21T04:01:37.643Z,12.99
2016-05-21T04:02:37.630Z,13.02
2016-05-21T04:03:37.618Z,12.99
2016-05-21T04:04:37.605Z,12.99
2016-05-21T04:05:37.576Z,13.03
2016-05-21T04:06:37.579Z,13
2016-05-21T04:07:37.566Z,12.99
2016-05-21T04:08:37.537Z,12.99
2016-05-21T04:09:37.524Z,13
2016-05-21T04:10:37.512Z,12.96
2016-05-21T04:11:37.733Z,12.99
2016-05-21T04:12:37.486Z,13.04
2016-05-21T04:13:37.473Z,12.97
2016-05-21T04:14:37.460Z,13.06
2016-05-21T04:15:37.448Z,13.04
2016-05-21T04:16:37.137Z,13.03
2016-05-21T04:17:37.437Z,13.07
2016-05-21T04:18:37.408Z,13.06
2016-05-21T04:19:37.083Z,13.14
2016-05-21T04:20:37.383Z,13.06
2016-05-21T04:21:37.370Z,13.09
2016-05-21T04:22:37.356Z,13.14
2016-05-21T04:23:37.344Z,13.17
2016-05-21T04:24:37.330Z,13.12
2016-05-21T04:25:37.318Z,13.07
2016-05-21T04:26:37.632Z,13.09
2016-05-21T04:27:37.135Z,13.07
2016-05-21T04:28:37.263Z,13.21
2016-05-21T04:29:37.094Z,13.18
2016-05-21T04:30:37.238Z,13.17
2016-05-21T04:31:37.224Z,13.14
2016-05-21T04:32:37.211Z,13.15
2016-05-21T04:33:37.042Z,13.07
2016-05-21T04:34:37.185Z,13.09
2016-05-21T04:35:37.173Z,13.18
2016-05-21T04:36:37.003Z,13.09
2016-05-21T04:37:37.147Z,13.18
2016-05-21T04:38:37.134Z,13.21
2016-05-21T04:39:36.965Z,13.11
2016-05-21T04:40:36.952Z,13.15
2016-05-21T04:41:37.189Z,13.15
2016-05-21T04:42:37.082Z,13.09
2016-05-21T04:43:36.912Z,13.24
2016-05-21T04:44:37.040Z,13.22
2016-05-21T04:45:36.903Z,13.2
2016-05-21T04:46:36.890Z,13.22
2016-05-21T04:47:37.017Z,13.27
2016-05-21T04:48:36.989Z,13.2
2016-05-21T04:49:36.992Z,13.21
2016-05-21T04:50:36.979Z,13.27
2016-05-21T04:51:36.950Z,13.24
2016-05-21T04:52:36.937Z,13.21
2016-05-21T04:53:36.939Z,13.25
2016-05-21T04:54:36.911Z,13.22
2016-05-21T04:55:37.305Z,13.33
2016-05-21T04:56:36.964Z,13.38
2016-05-21T04:57:36.872Z,13.38
2016-05-21T04:58:36.859Z,13.37
2016-05-21T04:59:36.894Z,13.4
2016-05-21T05:00:36.833Z,13.37
2016-05-21T05:01:36.664Z,13.43
2016-05-21T05:02:36.807Z,13.3
2016-05-21T05:03:36.794Z,13.41
2016-05-21T05:04:36.782Z,13.46
2016-05-21T05:05:36.785Z,13.43
2016-05-21T05:06:36.615Z,13.46
2016-05-21T05:07:36.602Z,13.51
2016-05-21T05:08:36.714Z,13.47
2016-05-21T05:09:36.702Z,13.52
2016-05-21T05:10:36.704Z,13.61
2016-05-21T05:11:37.004Z,13.52
2016-05-21T05:12:36.663Z,13.55
2016-05-21T05:13:36.509Z,13.62
2016-05-21T05:14:36.637Z,13.65
2016-05-21T05:15:36.640Z,13.67
2016-05-21T05:16:36.627Z,13.71
2016-05-21T05:17:36.614Z,13.77
2016-05-21T05:18:36.445Z,13.81
2016-05-21T05:19:36.431Z,13.88
2016-05-21T05:20:36.403Z,13.76
2016-05-21T05:21:36.547Z,13.89
2016-05-21T05:22:36.533Z,13.8
2016-05-21T05:23:36.520Z,13.77
2016-05-21T05:24:36.523Z,13.88
2016-05-21T05:25:36.510Z,13.94
2016-05-21T05:26:36.513Z,14.04
2016-05-21T05:27:36.313Z,14.13
2016-05-21T05:28:36.455Z,14.16
2016-05-21T05:29:36.444Z,14.29
2016-05-21T05:30:36.274Z,14.27
2016-05-21T05:31:36.416Z,14.35
2016-05-21T05:32:36.419Z,14.37
2016-05-21T05:33:36.391Z,14.44
2016-05-21T05:34:36.378Z,14.46
2016-05-21T05:35:36.365Z,14.47
2016-05-21T05:36:36.353Z,14.46
2016-05-21T05:37:36.339Z,14.5
2016-05-21T05:38:36.326Z,14.52
2016-05-21T05:39:36.313Z,14.49
2016-05-21T05:40:36.144Z,14.61
2016-05-21T05:41:36.006Z,14.57
2016-05-21T05:42:36.274Z,14.52
2016-05-21T05:43:36.293Z,14.6
2016-05-21T05:44:36.265Z,14.61
2016-05-21T05:45:36.236Z,14.64
2016-05-21T05:46:36.239Z,14.68
2016-05-21T05:47:36.069Z,14.67
2016-05-21T05:48:36.212Z,14.69
2016-05-21T05:49:36.184Z,14.68
2016-05-21T05:50:36.187Z,14.69
2016-05-21T05:51:36.173Z,14.67
2016-05-21T05:52:36.161Z,14.68
2016-05-21T05:53:36.148Z,14.72
2016-05-21T05:54:35.963Z,14.74
2016-05-21T05:55:36.106Z,14.78
2016-05-21T05:56:36.156Z,14.78
2016-05-21T05:57:35.940Z,14.74
2016-05-21T05:58:36.067Z,14.8
2016-05-21T05:59:35.930Z,14.78
2016-05-21T06:00:36.072Z,14.75
2016-05-21T06:01:36.029Z,14.86
2016-05-21T06:02:36.032Z,14.9
2016-05-21T06:03:36.019Z,14.93
2016-05-21T06:04:35.850Z,14.94
2016-05-21T06:05:35.993Z,15.06
2016-05-21T06:06:35.980Z,15.15
2016-05-21T06:07:35.810Z,15.15
2016-05-21T06:08:35.954Z,15.26
2016-05-21T06:09:35.941Z,15.23
2016-05-21T06:10:35.788Z,15.27
2016-05-21T06:11:36.009Z,15.28
2016-05-21T06:12:35.762Z,15.46
2016-05-21T06:13:35.905Z,15.48
2016-05-21T06:14:35.876Z,15.57
2016-05-21T06:15:35.863Z,15.51
2016-05-21T06:16:35.710Z,15.61
2016-05-21T06:17:35.697Z,15.42
2016-05-21T06:18:35.668Z,15.64
2016-05-21T06:19:35.812Z,15.52
2016-05-21T06:20:35.814Z,15.67
2016-05-21T06:21:35.801Z,15.57
2016-05-21T06:22:35.789Z,15.64
2016-05-21T06:23:35.620Z,15.75
2016-05-21T06:24:35.762Z,15.72
2016-05-21T06:25:35.765Z,15.7
2016-05-21T06:26:35.893Z,15.74
2016-05-21T06:27:35.724Z,15.79
2016-05-21T06:28:35.727Z,15.84
2016-05-21T06:29:35.698Z,15.88
2016-05-21T06:30:35.685Z,15.97
2016-05-21T06:31:35.531Z,16.07
2016-05-21T06:32:35.674Z,16.11
2016-05-21T06:33:35.661Z,16.23
2016-05-21T06:34:35.649Z,16.27
2016-05-21T06:35:35.636Z,16.35
2016-05-21T06:36:35.624Z,16.42
2016-05-21T06:37:35.610Z,16.49
2016-05-21T06:38:35.597Z,16.45
2016-05-21T06:39:35.585Z,16.44
2016-05-21T06:40:35.588Z,16.55
2016-05-21T06:41:36.042Z,16.49
2016-05-21T06:42:35.561Z,16.48
2016-05-21T06:43:35.563Z,16.53
2016-05-21T06:44:35.551Z,16.56
2016-05-21T06:45:35.522Z,16.58
2016-05-21T06:46:35.509Z,16.52
2016-05-21T06:47:35.340Z,16.45
2016-05-21T06:48:35.531Z,16.56
2016-05-21T06:49:35.346Z,16.5
2016-05-21T06:50:35.457Z,16.49
2016-05-21T06:51:35.460Z,16.56
2016-05-21T06:52:35.447Z,16.59
2016-05-21T06:53:35.450Z,16.6
2016-05-21T06:54:35.109Z,16.71
2016-05-21T06:55:35.409Z,16.85
2016-05-21T06:56:35.489Z,16.78
2016-05-21T06:57:35.383Z,16.92
2016-05-21T06:58:35.370Z,16.99
2016-05-21T06:59:35.388Z,17
2016-05-21T07:00:35.375Z,17.07
2016-05-21T07:01:35.362Z,17.18
2016-05-21T07:02:35.333Z,17.23
2016-05-21T07:03:35.336Z,17.28
2016-05-21T07:04:35.324Z,17.36
2016-05-21T07:05:35.311Z,17.4
2016-05-21T07:06:35.297Z,17.46
2016-05-21T07:07:35.285Z,17.54
2016-05-21T07:08:35.272Z,17.5
2016-05-21T07:09:35.102Z,17.62
2016-05-21T07:10:35.104Z,17.78
2016-05-21T07:11:35.108Z,17.94
2016-05-21T07:12:35.235Z,17.92
2016-05-21T07:13:35.066Z,18.06
2016-05-21T07:14:35.054Z,18.22
2016-05-21T07:15:35.040Z,18.15
2016-05-21T07:16:35.199Z,18.17
2016-05-21T07:17:35.202Z,18.17
2016-05-21T07:18:35.174Z,18.13
2016-05-21T07:19:35.176Z,18.21
2016-05-21T07:20:34.992Z,18.17
2016-05-21T07:21:34.995Z,18.21
2016-05-21T07:22:35.153Z,18.18
2016-05-21T07:23:34.984Z,18.19
2016-05-21T07:24:34.955Z,18.28
2016-05-21T07:25:35.099Z,18.24
2016-05-21T07:26:34.804Z,18.27
2016-05-21T07:27:35.088Z,18.25
2016-05-21T07:28:35.076Z,18.21
2016-05-21T07:29:35.062Z,18.36
2016-05-21T07:30:34.894Z,18.36
2016-05-21T07:31:35.037Z,18.43
2016-05-21T07:32:35.039Z,18.52
2016-05-21T07:33:34.886Z,18.46
2016-05-21T07:34:35.029Z,18.43
2016-05-21T07:35:35.016Z,18.44
2016-05-21T07:36:35.003Z,18.37
2016-05-21T07:37:34.990Z,18.43
2016-05-21T07:38:34.836Z,18.52
2016-05-21T07:39:34.996Z,18.58
2016-05-21T07:40:34.967Z,18.58
2016-05-21T07:41:35.719Z,18.58
2016-05-21T07:42:34.941Z,18.61
2016-05-21T07:43:34.929Z,18.58
2016-05-21T07:44:34.931Z,18.64
2016-05-21T07:45:34.918Z,18.65
2016-05-21T07:46:34.905Z,18.72
2016-05-21T07:47:34.752Z,18.82
2016-05-21T07:48:34.723Z,18.97
2016-05-21T07:49:34.726Z,18.98
2016-05-21T07:50:34.713Z,19.06
2016-05-21T07:51:34.871Z,19.1
2016-05-21T07:52:34.873Z,19.18
2016-05-21T07:53:34.862Z,19.17
2016-05-21T07:54:34.864Z,19.25
2016-05-21T07:55:34.695Z,19.29
2016-05-21T07:56:34.526Z,19.31
2016-05-21T07:57:34.809Z,19.39
2016-05-21T07:58:34.828Z,19.4
2016-05-21T07:59:34.643Z,19.46
2016-05-21T08:00:34.787Z,19.25
2016-05-21T08:01:34.773Z,19.33
2016-05-21T08:02:34.605Z,19.31
2016-05-21T08:03:34.778Z,19.32
2016-05-21T08:04:34.750Z,19.29
2016-05-21T08:05:34.753Z,19.28
2016-05-21T08:06:34.584Z,19.33
2016-05-21T08:07:34.727Z,19.31
2016-05-21T08:08:34.574Z,19.29
2016-05-21T08:09:34.717Z,19.33
2016-05-21T08:10:34.704Z,19.35
2016-05-21T08:11:34.957Z,19.4
2016-05-21T08:12:34.694Z,19.39
2016-05-21T08:13:34.680Z,19.35
2016-05-21T08:14:34.684Z,19.39
2016-05-21T08:15:34.685Z,19.43
2016-05-21T08:16:34.658Z,19.43
2016-05-21T08:17:34.660Z,19.4
2016-05-21T08:18:34.648Z,19.48
2016-05-21T08:19:34.619Z,19.5
2016-05-21T08:20:34.637Z,19.42
2016-05-21T08:21:34.624Z,19.38
2016-05-21T08:22:34.596Z,19.47
2016-05-21T08:23:34.598Z,19.5
2016-05-21T08:24:34.429Z,19.53
2016-05-21T08:25:34.573Z,19.65
2016-05-21T08:26:34.575Z,19.58
2016-05-21T08:27:34.406Z,19.53
2016-05-21T08:28:34.550Z,19.6
2016-05-21T08:29:34.553Z,19.61
2016-05-21T08:30:34.383Z,19.68
2016-05-21T08:31:34.370Z,19.6
2016-05-21T08:32:34.544Z,19.61
2016-05-21T08:33:34.359Z,19.72
2016-05-21T08:34:34.503Z,19.76
2016-05-21T08:35:34.506Z,19.93
2016-05-21T08:36:34.493Z,20.08
2016-05-21T08:37:34.542Z,20.23
2016-05-21T08:38:34.483Z,20.24
2016-05-21T08:39:34.469Z,20.58
2016-05-21T08:40:34.457Z,21.05
2016-05-21T08:41:34.710Z,21.19
2016-05-21T08:42:34.446Z,21.06
2016-05-21T08:43:34.433Z,20.93
2016-05-21T08:44:34.436Z,20.79
2016-05-21T08:45:34.423Z,20.69
2016-05-21T08:46:34.254Z,20.64
2016-05-21T08:47:34.413Z,20.53
2016-05-21T08:48:34.244Z,20.91
2016-05-21T08:49:34.402Z,21.27
2016-05-21T08:50:34.390Z,21.26
2016-05-21T08:51:34.376Z,21.29
2016-05-21T08:52:34.379Z,21.34
2016-05-21T08:53:34.367Z,21.2
2016-05-21T08:54:34.370Z,21.13
2016-05-21T08:55:34.372Z,21.34
2016-05-21T08:56:34.562Z,21.63
2016-05-21T08:57:34.346Z,21.85
2016-05-21T08:58:34.334Z,21.81
2016-05-21T08:59:34.179Z,21.88
2016-05-21T09:00:34.323Z,22.04
2016-05-21T09:01:34.169Z,22.23
2016-05-21T09:02:34.157Z,22.19
2016-05-21T09:03:34.175Z,22.34
2016-05-21T09:04:34.302Z,22.44
2016-05-21T09:05:34.290Z,22.34
2016-05-21T09:06:34.292Z,22.19
2016-05-21T09:07:34.280Z,22.04
2016-05-21T09:08:34.126Z,22.04
2016-05-21T09:09:34.301Z,21.97
2016-05-21T09:10:34.131Z,22.02
2016-05-21T09:11:34.650Z,21.98
2016-05-21T09:12:34.449Z,21.92
2016-05-21T09:13:34.092Z,21.72
2016-05-21T09:14:34.252Z,21.69
2016-05-21T09:15:34.254Z,21.63
2016-05-21T09:16:34.069Z,21.46
2016-05-21T09:17:34.250Z,21.74
2016-05-21T09:18:34.306Z,21.79
2016-05-21T09:19:34.126Z,21.88
2016-05-21T09:20:34.306Z,21.97
2016-05-21T09:21:34.314Z,21.99
2016-05-21T09:22:34.323Z,21.98
2016-05-21T09:23:34.147Z,21.92
2016-05-21T09:24:34.345Z,22.25
2016-05-21T09:25:34.168Z,22.19
2016-05-21T09:26:34.318Z,22.34
2016-05-21T09:27:34.308Z,22.27
2016-05-21T09:28:34.313Z,22.19
2016-05-21T09:29:34.319Z,22.19
2016-05-21T09:30:34.308Z,22.27
2016-05-21T09:31:34.314Z,22.31
2016-05-21T09:32:34.302Z,22.34
2016-05-21T09:33:34.305Z,22.35
2016-05-21T09:34:34.310Z,22.28
2016-05-21T09:35:34.313Z,22.19
2016-05-21T09:36:34.286Z,22.09
2016-05-21T09:37:34.274Z,22.04
2016-05-21T09:38:34.278Z,22.02
2016-05-21T09:39:34.264Z,21.98
2016-05-21T09:40:34.283Z,21.99
2016-05-21T09:41:34.396Z,22.04
2016-05-21T09:42:34.290Z,22.2
2016-05-21T09:43:34.245Z,22.32
2016-05-21T09:44:34.262Z,22.32
2016-05-21T09:45:34.234Z,22.13
2016-05-21T09:46:34.221Z,22.28
2016-05-21T09:47:34.065Z,22.31
2016-05-21T09:48:34.243Z,22.35
2016-05-21T09:49:34.228Z,22.46
2016-05-21T09:50:34.217Z,22.5
2016-05-21T09:51:34.219Z,22.22
2016-05-21T09:52:34.203Z,22.29
2016-05-21T09:53:34.191Z,22.39
2016-05-21T09:54:34.021Z,22.46
2016-05-21T09:55:34.180Z,22.49
2016-05-21T09:56:34.324Z,22.5
2016-05-21T09:57:34.013Z,22.28
2016-05-21T09:58:34.172Z,22.54
2016-05-21T09:59:34.160Z,22.54
2016-05-21T10:00:34.163Z,22.6
2016-05-21T10:01:34.352Z,22.8
2016-05-21T10:02:34.152Z,22.92
2016-05-21T10:03:34.139Z,23.09
2016-05-21T10:04:34.017Z,23.35
2016-05-21T10:05:33.988Z,23.24
2016-05-21T10:06:34.132Z,23.46
2016-05-21T10:07:34.119Z,23.61
2016-05-21T10:08:34.106Z,23.46
2016-05-21T10:09:34.109Z,23.29
2016-05-21T10:10:34.112Z,23.5
2016-05-21T10:11:34.207Z,23.67
2016-05-21T10:12:34.101Z,23.75
2016-05-21T10:13:34.104Z,24.07
2016-05-21T10:14:34.090Z,24.16
2016-05-21T10:15:34.093Z,23.92
2016-05-21T10:16:34.080Z,23.79
2016-05-21T10:17:33.927Z,23.72
2016-05-21T10:18:33.929Z,23.34
2016-05-21T10:19:34.088Z,23.09
2016-05-21T10:20:34.075Z,23.27
2016-05-21T10:21:34.079Z,23.47
2016-05-21T10:22:33.925Z,23.77
2016-05-21T10:23:34.084Z,23.67
2016-05-21T10:24:34.071Z,24.2
2016-05-21T10:25:33.902Z,23.71
2016-05-21T10:26:33.919Z,23.58
2016-05-21T10:27:33.907Z,23.42
2016-05-21T10:28:34.050Z,23.4
2016-05-21T10:29:34.053Z,23.31
2016-05-21T10:30:34.055Z,23.26
2016-05-21T10:31:34.043Z,23.15
2016-05-21T10:32:34.046Z,22.86
2016-05-21T10:33:33.892Z,22.94
2016-05-21T10:34:33.879Z,22.59
2016-05-21T10:35:34.038Z,22.72
2016-05-21T10:36:34.025Z,22.84
2016-05-21T10:37:34.028Z,22.89
2016-05-21T10:38:34.030Z,23.34
2016-05-21T10:39:33.877Z,23.76
2016-05-21T10:40:34.021Z,24.32
2016-05-21T10:41:34.101Z,24.52
2016-05-21T10:42:34.025Z,24.64
2016-05-21T10:43:34.012Z,24.73
2016-05-21T10:44:33.999Z,24.44
2016-05-21T10:45:34.002Z,24.94
2016-05-21T10:46:34.004Z,25.46
2016-05-21T10:47:34.007Z,25.82
2016-05-21T10:48:34.010Z,26.22
2016-05-21T10:49:33.998Z,26.29
2016-05-21T10:50:34.000Z,26.32
2016-05-21T10:51:34.034Z,26.29
2016-05-21T10:52:34.006Z,25.87
2016-05-21T10:53:34.009Z,25.5
2016-05-21T10:54:34.011Z,25.56
2016-05-21T10:55:33.858Z,25.72
2016-05-21T10:56:34.220Z,26.02
2016-05-21T10:57:34.020Z,26.09
2016-05-21T10:58:33.865Z,26.01
2016-05-21T10:59:34.009Z,25.98
2016-05-21T11:00:34.011Z,26.31
2016-05-21T11:01:34.014Z,26.11
2016-05-21T11:02:34.016Z,25.98
2016-05-21T11:03:33.864Z,25.61
2016-05-21T11:04:34.022Z,25.79
2016-05-21T11:05:34.024Z,25.79
2016-05-21T11:06:34.027Z,25.43
2016-05-21T11:07:34.030Z,24.97
2016-05-21T11:08:34.033Z,24.69
2016-05-21T11:09:34.035Z,24.57
2016-05-21T11:10:34.038Z,24.5
2016-05-21T11:11:34.166Z,24.82
2016-05-21T11:12:34.044Z,24.88
2016-05-21T11:13:34.046Z,25.22
2016-05-21T11:14:34.049Z,25.2
2016-05-21T11:15:34.052Z,25.44
2016-05-21T11:16:34.039Z,25.37
2016-05-21T11:17:34.042Z,25.2
2016-05-21T11:18:33.888Z,25.44
2016-05-21T11:19:34.047Z,25.99
2016-05-21T11:20:34.050Z,26.09
2016-05-21T11:21:33.896Z,26.31
2016-05-21T11:22:34.055Z,26.35
2016-05-21T11:23:33.886Z,26.25
2016-05-21T11:24:34.061Z,26.44
2016-05-21T11:25:34.047Z,26.55
2016-05-21T11:26:33.769Z,26.68
2016-05-21T11:27:34.099Z,26.55
2016-05-21T11:28:34.056Z,26.68
2016-05-21T11:29:34.058Z,26.55
2016-05-21T11:30:34.077Z,26.61
2016-05-21T11:31:34.063Z,26.86
2016-05-21T11:32:34.082Z,27.2
2016-05-21T11:33:34.069Z,27.35
2016-05-21T11:34:34.056Z,27.39
2016-05-21T11:35:34.074Z,27.01
2016-05-21T11:36:34.077Z,27.02
2016-05-21T11:37:34.080Z,26.68
2016-05-21T11:38:34.083Z,26.32
2016-05-21T11:39:34.085Z,26.49
2016-05-21T11:40:34.104Z,26.62
2016-05-21T11:41:34.324Z,26.81
2016-05-21T11:42:33.952Z,27.09
2016-05-21T11:43:34.079Z,27.2
2016-05-21T11:44:34.083Z,27.35
2016-05-21T11:45:34.101Z,27.57
2016-05-21T11:46:34.104Z,27.13
2016-05-21T11:47:34.107Z,27.1
2016-05-21T11:48:34.094Z,26.67
2016-05-21T11:49:34.112Z,26.79
2016-05-21T11:50:34.302Z,26.68
2016-05-21T11:51:34.101Z,26.59
2016-05-21T11:52:34.104Z,26.84
2016-05-21T11:53:33.951Z,26.96
2016-05-21T11:54:34.125Z,26.84
2016-05-21T11:55:33.972Z,26.86
2016-05-21T11:56:34.037Z,26.64
2016-05-21T11:57:34.259Z,26.28
2016-05-21T11:58:34.136Z,26.2
2016-05-21T11:59:34.123Z,26.39
2016-05-21T12:00:33.969Z,26.08
2016-05-21T12:01:34.128Z,25.79
2016-05-21T12:02:34.115Z,25.64
2016-05-21T12:03:33.822Z,25.75
2016-05-21T12:04:34.137Z,25.57
2016-05-21T12:05:34.139Z,25.59
2016-05-21T12:06:34.126Z,25.84
2016-05-21T12:07:34.129Z,26.12
2016-05-21T12:08:34.132Z,26.31
2016-05-21T12:09:33.963Z,26.39
2016-05-21T12:10:34.138Z,26.5
2016-05-21T12:11:34.421Z,26.52
2016-05-21T12:12:34.158Z,26.77
2016-05-21T12:13:33.988Z,26.95
2016-05-21T12:14:34.132Z,26.83
2016-05-21T12:15:34.119Z,26.79
2016-05-21T12:16:34.122Z,26.68
2016-05-21T12:17:34.124Z,26.43
2016-05-21T12:18:33.971Z,26.57
2016-05-21T12:19:33.974Z,26.47
2016-05-21T12:20:34.132Z,26.46
2016-05-21T12:21:34.135Z,26.74
2016-05-21T12:22:33.982Z,26.58
2016-05-21T12:23:34.140Z,26.76
2016-05-21T12:24:33.987Z,27.17
2016-05-21T12:25:34.131Z,27.28
2016-05-21T12:26:34.164Z,27.11
2016-05-21T12:27:34.136Z,27.06
2016-05-21T12:28:34.139Z,27.16
2016-05-21T12:29:34.141Z,26.99
2016-05-21T12:30:34.144Z,27.16
2016-05-21T12:31:34.147Z,27.42
2016-05-21T12:32:34.150Z,27.58
2016-05-21T12:33:34.153Z,27.54
2016-05-21T12:34:34.155Z,27.8
2016-05-21T12:35:34.017Z,27.43
2016-05-21T12:36:34.144Z,27.29
2016-05-21T12:37:34.163Z,26.98
2016-05-21T12:38:34.165Z,26.89
2016-05-21T12:39:34.153Z,27.16
2016-05-21T12:40:34.155Z,27.64
2016-05-21T12:41:34.251Z,27.95
2016-05-21T12:42:34.021Z,28.09
2016-05-21T12:43:34.007Z,28.4
2016-05-21T12:44:34.182Z,28.43
2016-05-21T12:45:34.013Z,28.54
2016-05-21T12:46:34.171Z,28.68
2016-05-21T12:47:34.018Z,28.85
2016-05-21T12:48:34.176Z,29.04
2016-05-21T12:49:34.179Z,29.26
2016-05-21T12:50:34.026Z,29.22
2016-05-21T12:51:34.029Z,28.62
2016-05-21T12:52:34.032Z,28.81
2016-05-21T12:53:34.190Z,28.41
2016-05-21T12:54:34.178Z,28.14
2016-05-21T12:55:34.195Z,28.16